CST,Max TemperatureF,Mean TemperatureF,Min TemperatureF,Max Dew PointF,MeanDew PointF,Min DewpointF,Max Humidity, Mean Humidity, Min Humidity, Max Sea Level PressureIn, Mean Sea Level PressureIn, Min Sea Level PressureIn, Max VisibilityMiles, Mean VisibilityMiles, Min VisibilityMiles, Max Wind SpeedMPH, Mean Wind SpeedMPH, Max Gust SpeedMPH,PrecipitationIn, CloudCover, Events, WindDirDegrees
2013-1-1,41,36,30,41,37,25,100,95,81,30.24,30.10,30.03,10,6,1,15,5,21,0.29,7,Rain,9
2013-1-2,33,29,25,25,22,18,92,75,54,30.32,30.27,30.22,10,9,8,12,7,,0.14,0,,8
2013-1-3,41,32,23,31,27,21,100,82,61,30.45,30.39,30.30,10,8,4,7,2,,0.03,0,,348
2013-1-4,45,34,24,32,28,23,100,84,55,30.51,30.45,30.40,10,7,1,6,1,,0.00,0,,218
2013-1-5,45,36,28,37,33,27,100,84,63,30.41,30.33,30.27,10,9,3,9,3,,0.00,6,,194
2013-1-6,48,39,30,38,34,29,100,91,54,30.40,30.29,30.24,10,5,0,12,5,17,0.00,2,Fog,243
2013-1-7,48,36,25,34,26,22,96,75,35,30.44,30.34,30.23,10,9,5,12,2,,0.00,0,,83
2013-1-8,55,42,30,40,34,27,92,72,51,30.28,30.21,30.16,10,10,9,10,2,,0.00,1,,137
2013-1-9,54,51,48,54,51,42,100,96,77,30.35,30.30,30.22,10,5,2,13,6,,1.06,8,Rain,51
2013-1-10,66,60,54,65,60,53,100,93,79,30.25,30.03,29.88,10,8,2,25,14,33,0.72,7,Rain,157
2013-1-11,63,57,51,61,52,48,97,81,63,30.03,29.97,29.92,10,9,0,16,9,24,0.26,1,,194
2013-1-12,71,66,62,69,65,62,100,97,83,29.95,29.88,29.71,10,5,0,23,9,32,0.27,7,Fog-Rain-Thunderstorm,180
2013-1-13,68,49,30,36,30,27,100,90,85,30.30,29.97,29.74,10,6,1,18,13,29,3.00,7,Rain-Thunderstorm,357
2013-1-14,30,28,26,26,23,21,89,82,74,30.43,30.34,30.29,10,10,5,22,15,34,0.03,5,,17
2013-1-15,30,28,25,29,26,22,96,91,84,30.30,30.17,30.10,10,8,2,20,13,26,0.10,7,Rain,18
2013-1-16,32,30,28,31,27,25,100,89,80,30.20,30.15,30.10,10,9,3,12,7,16,0.00,7,,355
2013-1-17,46,38,30,36,30,25,92,77,63,30.51,30.30,30.16,10,10,10,13,5,20,0.00,3,,346
2013-1-18,50,38,25,33,29,24,100,76,44,30.58,30.48,30.36,10,9,2,10,3,,0.00,0,,171
2013-1-19,57,44,32,38,34,29,89,69,43,30.35,30.26,30.18,10,10,10,16,8,22,0.00,0,,190
2013-1-20,57,45,33,36,33,29,96,66,37,30.28,30.21,30.18,10,10,10,12,6,,0.00,0,,18
2013-1-21,39,32,26,28,22,18,92,68,45,30.38,30.32,30.20,10,10,10,15,7,21,0.00,1,,15
2013-1-22,37,30,23,23,18,13,85,61,42,30.46,30.38,30.33,10,10,10,12,4,,0.00,3,,32
2013-1-23,53,40,27,40,30,20,93,73,54,30.36,30.27,30.18,10,10,10,9,3,,0.00,2,,175
2013-1-24,42,38,35,40,23,18,92,56,43,30.46,30.33,30.22,10,10,10,17,9,23,0.00,7,,55
2013-1-25,46,39,32,36,33,21,100,85,45,30.27,30.17,30.05,10,7,1,13,6,20,0.02,6,Rain,6
2013-1-26,53,40,28,37,31,28,100,85,38,30.35,30.28,30.26,10,4,0,10,1,,0.00,2,Fog,65
2013-1-27,63,56,48,54,44,34,90,71,58,30.25,30.19,30.10,10,9,1,16,7,,0.00,5,,148
2013-1-28,71,65,59,61,57,53,90,81,68,30.15,30.09,30.04,10,10,10,21,16,31,0.00,6,Rain,185
2013-1-29,73,64,55,66,61,57,100,81,64,30.01,29.71,29.47,10,7,1,31,16,41,2.16,6,Rain-Thunderstorm,198
2013-1-30,55,44,34,54,36,24,100,71,58,30.06,29.69,29.53,10,9,4,17,10,36,0.84,6,Rain,265
2013-1-31,53,42,30,33,28,24,87,68,43,30.37,30.17,30.05,10,10,10,16,5,26,0.00,2,,273